sensor_id;sensor_type;location;lat;lon;timestamp;P1;durP1;ratioP1;P2;durP2;ratioP2
10586;SDS011;5341;47.606;7.576;2022-08-06T00:02:24;3.50;;;3.20;;
10586;SDS011;5341;47.606;7.576;2022-08-06T00:04:53;5.20;;;3.35;;
10586;SDS011;5341;47.606;7.576;2022-08-06T00:07:21;3.75;;;3.20;;
10586;SDS011;5341;47.606;7.576;2022-08-06T00:09:49;3.47;;;2.90;;
10586;SDS011;5341;47.606;7.576;2022-08-06T00:12:17;5.13;;;3.03;;
10586;SDS011;5341;47.606;7.576;2022-08-06T00:14:45;3.58;;;3.25;;
10586;SDS011;5341;47.606;7.576;2022-08-06T00:17:15;3.33;;;2.95;;
10586;SDS011;5341;47.606;7.576;2022-08-06T00:19:44;3.55;;;3.05;;
10586;SDS011;5341;47.606;7.576;2022-08-06T00:22:11;3.70;;;3.15;;
10586;SDS011;5341;47.606;7.576;2022-08-06T00:24:39;5.20;;;3.00;;
10586;SDS011;5341;47.606;7.576;2022-08-06T00:27:07;4.72;;;2.83;;
10586;SDS011;5341;47.606;7.576;2022-08-06T00:29:35;3.13;;;2.83;;
10586;SDS011;5341;47.606;7.576;2022-08-06T00:32:02;3.25;;;2.95;;
10586;SDS011;5341;47.606;7.576;2022-08-06T00:34:32;4.40;;;3.08;;
10586;SDS011;5341;47.606;7.576;2022-08-06T00:37:00;6.55;;;3.13;;
10586;SDS011;5341;47.606;7.576;2022-08-06T00:39:27;3.38;;;2.88;;
10586;SDS011;5341;47.606;7.576;2022-08-06T00:41:55;3.90;;;2.97;;
10586;SDS011;5341;47.606;7.576;2022-08-06T00:44:23;5.70;;;2.75;;
10586;SDS011;5341;47.606;7.576;2022-08-06T00:46:50;3.42;;;2.50;;
10586;SDS011;5341;47.606;7.576;2022-08-06T00:49:19;4.32;;;2.90;;
10586;SDS011;5341;47.606;7.576;2022-08-06T00:51:47;2.90;;;2.60;;
10586;SDS011;5341;47.606;7.576;2022-08-06T00:54:15;4.65;;;2.38;;
10586;SDS011;5341;47.606;7.576;2022-08-06T00:56:43;3.92;;;2.55;;
10586;SDS011;5341;47.606;7.576;2022-08-06T00:59:10;3.20;;;2.28;;
10586;SDS011;5341;47.606;7.576;2022-08-06T01:01:38;2.50;;;2.30;;
10586;SDS011;5341;47.606;7.576;2022-08-06T01:04:06;3.05;;;2.42;;
10586;SDS011;5341;47.606;7.576;2022-08-06T01:06:34;3.78;;;2.28;;
10586;SDS011;5341;47.606;7.576;2022-08-06T01:09:02;2.97;;;2.33;;
10586;SDS011;5341;47.606;7.576;2022-08-06T01:11:30;2.40;;;2.20;;
10586;SDS011;5341;47.606;7.576;2022-08-06T01:13:58;2.95;;;2.30;;
10586;SDS011;5341;47.606;7.576;2022-08-06T01:16:26;5.68;;;2.50;;
10586;SDS011;5341;47.606;7.576;2022-08-06T01:19:03;2.72;;;2.30;;
10586;SDS011;5341;47.606;7.576;2022-08-06T01:21:51;3.35;;;2.40;;
10586;SDS011;5341;47.606;7.576;2022-08-06T01:24:47;2.83;;;2.35;;
10586;SDS011;5341;47.606;7.576;2022-08-06T01:27:30;4.28;;;2.50;;
10586;SDS011;5341;47.606;7.576;2022-08-06T01:30:04;3.25;;;2.10;;
10586;SDS011;5341;47.606;7.576;2022-08-06T01:32:35;2.85;;;2.22;;
10586;SDS011;5341;47.606;7.576;2022-08-06T01:35:09;2.80;;;2.42;;
10586;SDS011;5341;47.606;7.576;2022-08-06T01:37:42;3.25;;;2.58;;
10586;SDS011;5341;47.606;7.576;2022-08-06T01:40:18;2.80;;;2.20;;
10586;SDS011;5341;47.606;7.576;2022-08-06T01:42:51;5.93;;;2.28;;
10586;SDS011;5341;47.606;7.576;2022-08-06T01:45:22;2.55;;;2.20;;
10586;SDS011;5341;47.606;7.576;2022-08-06T01:47:56;3.97;;;2.55;;
10586;SDS011;5341;47.606;7.576;2022-08-06T01:50:27;5.22;;;2.38;;
10586;SDS011;5341;47.606;7.576;2022-08-06T01:52:57;4.30;;;2.30;;
10586;SDS011;5341;47.606;7.576;2022-08-06T01:55:26;3.88;;;2.30;;
10586;SDS011;5341;47.606;7.576;2022-08-06T01:57:59;2.72;;;2.33;;
10586;SDS011;5341;47.606;7.576;2022-08-06T02:00:29;3.45;;;2.38;;
10586;SDS011;5341;47.606;7.576;2022-08-06T02:02:58;3.17;;;2.25;;
10586;SDS011;5341;47.606;7.576;2022-08-06T02:05:28;3.72;;;2.33;;
10586;SDS011;5341;47.606;7.576;2022-08-06T02:07:58;2.58;;;2.17;;
10586;SDS011;5341;47.606;7.576;2022-08-06T02:10:27;3.03;;;2.10;;
10586;SDS011;5341;47.606;7.576;2022-08-06T02:13:01;5.85;;;2.38;;
10586;SDS011;5341;47.606;7.576;2022-08-06T02:15:30;2.83;;;1.80;;
10586;SDS011;5341;47.606;7.576;2022-08-06T02:18:02;3.45;;;2.10;;
10586;SDS011;5341;47.606;7.576;2022-08-06T02:20:32;2.33;;;1.80;;
10586;SDS011;5341;47.606;7.576;2022-08-06T02:23:02;5.30;;;2.17;;
10586;SDS011;5341;47.606;7.576;2022-08-06T02:25:31;2.60;;;2.00;;
10586;SDS011;5341;47.606;7.576;2022-08-06T02:28:02;2.63;;;2.10;;
10586;SDS011;5341;47.606;7.576;2022-08-06T02:30:32;2.47;;;2.05;;
10586;SDS011;5341;47.606;7.576;2022-08-06T02:33:03;3.05;;;2.40;;
10586;SDS011;5341;47.606;7.576;2022-08-06T02:35:31;2.78;;;2.10;;
10586;SDS011;5341;47.606;7.576;2022-08-06T02:38:03;4.30;;;2.10;;
10586;SDS011;5341;47.606;7.576;2022-08-06T02:40:40;3.55;;;2.03;;
10586;SDS011;5341;47.606;7.576;2022-08-06T02:43:13;2.45;;;1.90;;
10586;SDS011;5341;47.606;7.576;2022-08-06T02:45:45;2.63;;;1.90;;
10586;SDS011;5341;47.606;7.576;2022-08-06T02:48:18;2.25;;;1.92;;
10586;SDS011;5341;47.606;7.576;2022-08-06T02:50:50;3.65;;;2.20;;
10586;SDS011;5341;47.606;7.576;2022-08-06T02:53:21;2.75;;;1.95;;
10586;SDS011;5341;47.606;7.576;2022-08-06T02:56:01;4.68;;;2.10;;
10586;SDS011;5341;47.606;7.576;2022-08-06T02:58:35;2.47;;;1.90;;
10586;SDS011;5341;47.606;7.576;2022-08-06T03:01:07;2.42;;;2.17;;
10586;SDS011;5341;47.606;7.576;2022-08-06T03:03:38;2.95;;;2.10;;
10586;SDS011;5341;47.606;7.576;2022-08-06T03:06:09;4.03;;;2.30;;
10586;SDS011;5341;47.606;7.576;2022-08-06T03:08:41;4.95;;;2.20;;
10586;SDS011;5341;47.606;7.576;2022-08-06T03:11:11;3.22;;;2.17;;
10586;SDS011;5341;47.606;7.576;2022-08-06T03:13:41;3.00;;;2.10;;
10586;SDS011;5341;47.606;7.576;2022-08-06T03:16:12;2.90;;;1.98;;
10586;SDS011;5341;47.606;7.576;2022-08-06T03:18:41;2.28;;;2.05;;
10586;SDS011;5341;47.606;7.576;2022-08-06T03:21:09;2.40;;;1.92;;
10586;SDS011;5341;47.606;7.576;2022-08-06T03:23:38;2.47;;;1.83;;
10586;SDS011;5341;47.606;7.576;2022-08-06T03:26:08;3.13;;;2.05;;
10586;SDS011;5341;47.606;7.576;2022-08-06T03:28:39;4.15;;;2.20;;
10586;SDS011;5341;47.606;7.576;2022-08-06T03:31:09;3.47;;;2.22;;
10586;SDS011;5341;47.606;7.576;2022-08-06T03:33:37;3.75;;;2.10;;
10586;SDS011;5341;47.606;7.576;2022-08-06T03:36:06;5.25;;;2.17;;
10586;SDS011;5341;47.606;7.576;2022-08-06T03:38:38;2.75;;;1.92;;
10586;SDS011;5341;47.606;7.576;2022-08-06T03:41:07;3.13;;;2.20;;
10586;SDS011;5341;47.606;7.576;2022-08-06T03:43:36;4.88;;;2.00;;
10586;SDS011;5341;47.606;7.576;2022-08-06T03:46:05;3.78;;;2.00;;
10586;SDS011;5341;47.606;7.576;2022-08-06T03:48:36;3.03;;;2.25;;
10586;SDS011;5341;47.606;7.576;2022-08-06T03:51:07;2.78;;;1.83;;
10586;SDS011;5341;47.606;7.576;2022-08-06T03:53:38;4.43;;;2.30;;
10586;SDS011;5341;47.606;7.576;2022-08-06T03:56:09;2.63;;;2.15;;
10586;SDS011;5341;47.606;7.576;2022-08-06T03:58:42;2.38;;;2.08;;
10586;SDS011;5341;47.606;7.576;2022-08-06T04:01:14;2.78;;;2.10;;
10586;SDS011;5341;47.606;7.576;2022-08-06T04:03:48;3.38;;;2.00;;
10586;SDS011;5341;47.606;7.576;2022-08-06T04:06:18;4.68;;;2.03;;
10586;SDS011;5341;47.606;7.576;2022-08-06T04:08:48;2.15;;;1.95;;
10586;SDS011;5341;47.606;7.576;2022-08-06T04:11:21;3.13;;;2.13;;
10586;SDS011;5341;47.606;7.576;2022-08-06T04:13:53;2.85;;;1.80;;
10586;SDS011;5341;47.606;7.576;2022-08-06T04:16:22;4.43;;;2.10;;
10586;SDS011;5341;47.606;7.576;2022-08-06T04:18:52;2.75;;;2.35;;
10586;SDS011;5341;47.606;7.576;2022-08-06T04:21:23;2.70;;;2.00;;
10586;SDS011;5341;47.606;7.576;2022-08-06T04:23:51;3.25;;;2.00;;
10586;SDS011;5341;47.606;7.576;2022-08-06T04:26:22;4.72;;;2.15;;
10586;SDS011;5341;47.606;7.576;2022-08-06T04:28:54;3.45;;;2.00;;
10586;SDS011;5341;47.606;7.576;2022-08-06T04:31:23;2.30;;;1.98;;
10586;SDS011;5341;47.606;7.576;2022-08-06T04:33:55;2.40;;;1.70;;
10586;SDS011;5341;47.606;7.576;2022-08-06T04:36:24;4.53;;;2.28;;
10586;SDS011;5341;47.606;7.576;2022-08-06T04:38:52;3.58;;;2.10;;
10586;SDS011;5341;47.606;7.576;2022-08-06T04:41:20;4.85;;;2.35;;
10586;SDS011;5341;47.606;7.576;2022-08-06T04:43:49;3.05;;;1.80;;
10586;SDS011;5341;47.606;7.576;2022-08-06T04:46:17;3.60;;;2.20;;
10586;SDS011;5341;47.606;7.576;2022-08-06T04:48:46;3.20;;;2.28;;
10586;SDS011;5341;47.606;7.576;2022-08-06T04:51:15;5.72;;;2.00;;
10586;SDS011;5341;47.606;7.576;2022-08-06T04:53:43;2.78;;;2.00;;
10586;SDS011;5341;47.606;7.576;2022-08-06T04:56:11;3.03;;;1.92;;
10586;SDS011;5341;47.606;7.576;2022-08-06T04:58:39;3.15;;;1.95;;
10586;SDS011;5341;47.606;7.576;2022-08-06T05:01:06;2.22;;;1.70;;
10586;SDS011;5341;47.606;7.576;2022-08-06T05:03:34;2.67;;;2.20;;
10586;SDS011;5341;47.606;7.576;2022-08-06T05:06:04;3.67;;;2.10;;
10586;SDS011;5341;47.606;7.576;2022-08-06T05:08:40;2.20;;;1.90;;
10586;SDS011;5341;47.606;7.576;2022-08-06T05:11:12;2.55;;;2.03;;
10586;SDS011;5341;47.606;7.576;2022-08-06T05:13:43;3.00;;;2.10;;
10586;SDS011;5341;47.606;7.576;2022-08-06T05:16:14;3.40;;;2.03;;
10586;SDS011;5341;47.606;7.576;2022-08-06T05:18:49;2.35;;;1.80;;
10586;SDS011;5341;47.606;7.576;2022-08-06T05:21:20;5.38;;;2.10;;
10586;SDS011;5341;47.606;7.576;2022-08-06T05:23:53;3.13;;;2.17;;
10586;SDS011;5341;47.606;7.576;2022-08-06T05:26:22;2.85;;;2.20;;
10586;SDS011;5341;47.606;7.576;2022-08-06T05:28:50;2.42;;;2.03;;
10586;SDS011;5341;47.606;7.576;2022-08-06T05:31:28;4.28;;;1.90;;
10586;SDS011;5341;47.606;7.576;2022-08-06T05:33:56;2.38;;;1.90;;
10586;SDS011;5341;47.606;7.576;2022-08-06T05:36:23;2.53;;;2.00;;
10586;SDS011;5341;47.606;7.576;2022-08-06T05:38:53;3.10;;;2.00;;
10586;SDS011;5341;47.606;7.576;2022-08-06T05:41:20;4.40;;;2.03;;
10586;SDS011;5341;47.606;7.576;2022-08-06T05:43:48;4.47;;;2.05;;
10586;SDS011;5341;47.606;7.576;2022-08-06T05:46:16;4.35;;;1.92;;
10586;SDS011;5341;47.606;7.576;2022-08-06T05:48:48;3.38;;;2.10;;
10586;SDS011;5341;47.606;7.576;2022-08-06T05:51:23;3.28;;;2.17;;
10586;SDS011;5341;47.606;7.576;2022-08-06T05:53:59;2.85;;;2.00;;
10586;SDS011;5341;47.606;7.576;2022-08-06T05:56:33;3.47;;;2.10;;
10586;SDS011;5341;47.606;7.576;2022-08-06T05:59:05;3.20;;;2.40;;
10586;SDS011;5341;47.606;7.576;2022-08-06T06:01:37;2.92;;;2.00;;
10586;SDS011;5341;47.606;7.576;2022-08-06T06:04:06;2.97;;;1.80;;
10586;SDS011;5341;47.606;7.576;2022-08-06T06:06:35;2.75;;;1.98;;
10586;SDS011;5341;47.606;7.576;2022-08-06T06:09:04;2.97;;;2.00;;
10586;SDS011;5341;47.606;7.576;2022-08-06T06:11:33;1.92;;;1.73;;
10586;SDS011;5341;47.606;7.576;2022-08-06T06:14:03;3.70;;;1.88;;
10586;SDS011;5341;47.606;7.576;2022-08-06T06:16:33;2.20;;;1.83;;
10586;SDS011;5341;47.606;7.576;2022-08-06T06:19:18;2.88;;;1.98;;
10586;SDS011;5341;47.606;7.576;2022-08-06T06:21:54;4.07;;;2.05;;
10586;SDS011;5341;47.606;7.576;2022-08-06T06:24:28;2.40;;;2.20;;
10586;SDS011;5341;47.606;7.576;2022-08-06T06:27:01;3.88;;;1.80;;
10586;SDS011;5341;47.606;7.576;2022-08-06T06:29:37;2.70;;;1.92;;
10586;SDS011;5341;47.606;7.576;2022-08-06T06:32:09;3.25;;;1.90;;
10586;SDS011;5341;47.606;7.576;2022-08-06T06:34:46;5.55;;;2.17;;
10586;SDS011;5341;47.606;7.576;2022-08-06T06:37:24;5.00;;;2.10;;
10586;SDS011;5341;47.606;7.576;2022-08-06T06:40:05;2.35;;;1.70;;
10586;SDS011;5341;47.606;7.576;2022-08-06T06:42:42;3.17;;;1.95;;
10586;SDS011;5341;47.606;7.576;2022-08-06T06:45:16;3.63;;;1.88;;
10586;SDS011;5341;47.606;7.576;2022-08-06T06:47:47;3.92;;;2.15;;
10586;SDS011;5341;47.606;7.576;2022-08-06T06:50:22;4.38;;;2.20;;
10586;SDS011;5341;47.606;7.576;2022-08-06T06:52:52;2.70;;;2.17;;
10586;SDS011;5341;47.606;7.576;2022-08-06T06:55:23;3.95;;;2.20;;
10586;SDS011;5341;47.606;7.576;2022-08-06T06:57:57;3.97;;;2.00;;
10586;SDS011;5341;47.606;7.576;2022-08-06T07:00:34;2.45;;;2.00;;
10586;SDS011;5341;47.606;7.576;2022-08-06T07:03:03;3.22;;;2.20;;
10586;SDS011;5341;47.606;7.576;2022-08-06T07:05:32;2.45;;;1.80;;
10586;SDS011;5341;47.606;7.576;2022-08-06T07:08:02;6.78;;;2.28;;
10586;SDS011;5341;47.606;7.576;2022-08-06T07:10:33;4.43;;;2.15;;
10586;SDS011;5341;47.606;7.576;2022-08-06T07:13:02;2.53;;;1.95;;
10586;SDS011;5341;47.606;7.576;2022-08-06T07:15:32;3.15;;;1.90;;
10586;SDS011;5341;47.606;7.576;2022-08-06T07:18:01;3.33;;;2.15;;
10586;SDS011;5341;47.606;7.576;2022-08-06T07:20:31;3.67;;;2.20;;
10586;SDS011;5341;47.606;7.576;2022-08-06T07:23:01;2.67;;;2.10;;
10586;SDS011;5341;47.606;7.576;2022-08-06T07:25:33;2.83;;;2.20;;
10586;SDS011;5341;47.606;7.576;2022-08-06T07:28:03;3.30;;;2.30;;
10586;SDS011;5341;47.606;7.576;2022-08-06T07:30:32;2.80;;;2.00;;
10586;SDS011;5341;47.606;7.576;2022-08-06T07:33:00;2.20;;;1.90;;
10586;SDS011;5341;47.606;7.576;2022-08-06T07:35:30;3.67;;;2.08;;
10586;SDS011;5341;47.606;7.576;2022-08-06T07:37:59;3.15;;;2.20;;
10586;SDS011;5341;47.606;7.576;2022-08-06T07:40:29;3.55;;;2.33;;
10586;SDS011;5341;47.606;7.576;2022-08-06T07:45:47;2.38;;;1.80;;
10586;SDS011;5341;47.606;7.576;2022-08-06T07:48:16;5.22;;;2.40;;
10586;SDS011;5341;47.606;7.576;2022-08-06T07:50:49;3.60;;;2.30;;
10586;SDS011;5341;47.606;7.576;2022-08-06T07:53:18;2.33;;;2.03;;
10586;SDS011;5341;47.606;7.576;2022-08-06T07:55:48;2.85;;;2.30;;
10586;SDS011;5341;47.606;7.576;2022-08-06T07:58:15;2.63;;;2.35;;
10586;SDS011;5341;47.606;7.576;2022-08-06T08:00:45;4.35;;;1.98;;
10586;SDS011;5341;47.606;7.576;2022-08-06T08:03:14;3.10;;;2.53;;
10586;SDS011;5341;47.606;7.576;2022-08-06T08:05:59;2.42;;;2.17;;
10586;SDS011;5341;47.606;7.576;2022-08-06T08:08:46;4.57;;;2.45;;
10586;SDS011;5341;47.606;7.576;2022-08-06T08:11:14;2.30;;;1.90;;
10586;SDS011;5341;47.606;7.576;2022-08-06T08:13:43;2.53;;;2.08;;
10586;SDS011;5341;47.606;7.576;2022-08-06T08:16:13;3.47;;;2.45;;
10586;SDS011;5341;47.606;7.576;2022-08-06T08:18:42;4.05;;;2.38;;
10586;SDS011;5341;47.606;7.576;2022-08-06T08:21:10;5.60;;;2.35;;
10586;SDS011;5341;47.606;7.576;2022-08-06T08:23:39;2.20;;;1.85;;
10586;SDS011;5341;47.606;7.576;2022-08-06T08:26:08;3.22;;;2.30;;
10586;SDS011;5341;47.606;7.576;2022-08-06T08:28:35;2.60;;;1.92;;
10586;SDS011;5341;47.606;7.576;2022-08-06T08:31:03;2.80;;;2.20;;
10586;SDS011;5341;47.606;7.576;2022-08-06T08:33:33;5.45;;;2.40;;
10586;SDS011;5341;47.606;7.576;2022-08-06T08:36:00;3.72;;;2.28;;
10586;SDS011;5341;47.606;7.576;2022-08-06T08:38:30;4.95;;;2.28;;
10586;SDS011;5341;47.606;7.576;2022-08-06T08:41:00;3.78;;;2.20;;
10586;SDS011;5341;47.606;7.576;2022-08-06T08:43:30;4.40;;;2.20;;
10586;SDS011;5341;47.606;7.576;2022-08-06T08:46:01;2.30;;;2.03;;
10586;SDS011;5341;47.606;7.576;2022-08-06T08:48:32;3.20;;;2.53;;
10586;SDS011;5341;47.606;7.576;2022-08-06T08:51:01;5.57;;;2.17;;
10586;SDS011;5341;47.606;7.576;2022-08-06T08:53:34;3.40;;;2.80;;
10586;SDS011;5341;47.606;7.576;2022-08-06T08:56:05;4.05;;;2.15;;
10586;SDS011;5341;47.606;7.576;2022-08-06T08:58:35;2.70;;;2.00;;
10586;SDS011;5341;47.606;7.576;2022-08-06T09:01:05;3.13;;;2.20;;
10586;SDS011;5341;47.606;7.576;2022-08-06T09:03:36;3.03;;;2.03;;
10586;SDS011;5341;47.606;7.576;2022-08-06T09:06:06;3.97;;;2.53;;
10586;SDS011;5341;47.606;7.576;2022-08-06T09:08:35;3.38;;;2.55;;
10586;SDS011;5341;47.606;7.576;2022-08-06T09:11:03;2.83;;;2.33;;
10586;SDS011;5341;47.606;7.576;2022-08-06T09:13:32;3.22;;;2.15;;
10586;SDS011;5341;47.606;7.576;2022-08-06T09:16:01;2.15;;;1.95;;
10586;SDS011;5341;47.606;7.576;2022-08-06T09:18:29;3.65;;;2.17;;
10586;SDS011;5341;47.606;7.576;2022-08-06T09:21:00;2.22;;;2.03;;
10586;SDS011;5341;47.606;7.576;2022-08-06T09:23:30;2.50;;;2.05;;
10586;SDS011;5341;47.606;7.576;2022-08-06T09:25:57;4.15;;;2.20;;
10586;SDS011;5341;47.606;7.576;2022-08-06T09:28:32;2.40;;;2.20;;
10586;SDS011;5341;47.606;7.576;2022-08-06T09:31:02;3.72;;;2.40;;
10586;SDS011;5341;47.606;7.576;2022-08-06T09:33:34;5.10;;;2.47;;
10586;SDS011;5341;47.606;7.576;2022-08-06T09:36:05;3.72;;;2.85;;
10586;SDS011;5341;47.606;7.576;2022-08-06T09:38:44;3.20;;;2.55;;
10586;SDS011;5341;47.606;7.576;2022-08-06T09:41:13;3.72;;;2.75;;
10586;SDS011;5341;47.606;7.576;2022-08-06T09:43:43;3.03;;;2.40;;
10586;SDS011;5341;47.606;7.576;2022-08-06T09:46:13;4.50;;;2.33;;
10586;SDS011;5341;47.606;7.576;2022-08-06T09:48:55;3.28;;;2.45;;
10586;SDS011;5341;47.606;7.576;2022-08-06T09:51:26;6.18;;;3.53;;
10586;SDS011;5341;47.606;7.576;2022-08-06T09:53:57;4.55;;;2.83;;
10586;SDS011;5341;47.606;7.576;2022-08-06T09:56:30;3.75;;;2.50;;
10586;SDS011;5341;47.606;7.576;2022-08-06T09:59:01;5.40;;;2.97;;
10586;SDS011;5341;47.606;7.576;2022-08-06T10:01:37;3.47;;;2.60;;
10586;SDS011;5341;47.606;7.576;2022-08-06T10:04:06;3.78;;;2.50;;
10586;SDS011;5341;47.606;7.576;2022-08-06T10:06:51;2.90;;;2.60;;
10586;SDS011;5341;47.606;7.576;2022-08-06T10:09:19;3.05;;;2.30;;
10586;SDS011;5341;47.606;7.576;2022-08-06T10:11:47;3.95;;;2.78;;
10586;SDS011;5341;47.606;7.576;2022-08-06T10:14:21;4.97;;;2.92;;
10586;SDS011;5341;47.606;7.576;2022-08-06T10:17:02;4.93;;;2.55;;
10586;SDS011;5341;47.606;7.576;2022-08-06T10:19:31;2.90;;;2.40;;
10586;SDS011;5341;47.606;7.576;2022-08-06T10:22:04;3.95;;;2.95;;
10586;SDS011;5341;47.606;7.576;2022-08-06T10:24:31;4.53;;;2.90;;
10586;SDS011;5341;47.606;7.576;2022-08-06T10:27:02;3.33;;;2.50;;
10586;SDS011;5341;47.606;7.576;2022-08-06T10:29:33;4.82;;;3.40;;
10586;SDS011;5341;47.606;7.576;2022-08-06T10:32:05;4.88;;;3.65;;
10586;SDS011;5341;47.606;7.576;2022-08-06T10:34:35;4.07;;;2.78;;
10586;SDS011;5341;47.606;7.576;2022-08-06T10:37:07;5.18;;;3.17;;
10586;SDS011;5341;47.606;7.576;2022-08-06T10:39:39;4.30;;;2.88;;
10586;SDS011;5341;47.606;7.576;2022-08-06T10:42:09;4.53;;;3.47;;
10586;SDS011;5341;47.606;7.576;2022-08-06T10:44:38;4.28;;;3.63;;
10586;SDS011;5341;47.606;7.576;2022-08-06T10:47:06;5.60;;;3.53;;
10586;SDS011;5341;47.606;7.576;2022-08-06T10:49:34;3.65;;;2.85;;
10586;SDS011;5341;47.606;7.576;2022-08-06T10:52:02;6.03;;;2.97;;
10586;SDS011;5341;47.606;7.576;2022-08-06T10:54:32;5.05;;;3.10;;
10586;SDS011;5341;47.606;7.576;2022-08-06T10:57:01;4.43;;;3.20;;
10586;SDS011;5341;47.606;7.576;2022-08-06T10:59:29;4.00;;;3.30;;
10586;SDS011;5341;47.606;7.576;2022-08-06T11:02:00;5.97;;;3.38;;
10586;SDS011;5341;47.606;7.576;2022-08-06T11:04:40;5.00;;;3.28;;
10586;SDS011;5341;47.606;7.576;2022-08-06T11:07:19;3.83;;;3.28;;
10586;SDS011;5341;47.606;7.576;2022-08-06T11:10:18;6.78;;;3.63;;
10586;SDS011;5341;47.606;7.576;2022-08-06T11:12:59;5.28;;;3.42;;
10586;SDS011;5341;47.606;7.576;2022-08-06T11:15:36;4.70;;;3.13;;
10586;SDS011;5341;47.606;7.576;2022-08-06T11:18:04;4.50;;;3.22;;
10586;SDS011;5341;47.606;7.576;2022-08-06T11:20:37;4.55;;;3.35;;
10586;SDS011;5341;47.606;7.576;2022-08-06T11:26:02;5.10;;;3.17;;
10586;SDS011;5341;47.606;7.576;2022-08-06T11:31:31;3.33;;;3.03;;
10586;SDS011;5341;47.606;7.576;2022-08-06T11:34:04;3.42;;;2.95;;
10586;SDS011;5341;47.606;7.576;2022-08-06T11:36:44;3.92;;;2.58;;
10586;SDS011;5341;47.606;7.576;2022-08-06T11:39:13;4.60;;;3.10;;
10586;SDS011;5341;47.606;7.576;2022-08-06T11:41:47;3.72;;;2.85;;
10586;SDS011;5341;47.606;7.576;2022-08-06T11:44:20;3.50;;;2.80;;
10586;SDS011;5341;47.606;7.576;2022-08-06T11:46:48;5.13;;;2.75;;
10586;SDS011;5341;47.606;7.576;2022-08-06T11:49:36;7.53;;;2.90;;
10586;SDS011;5341;47.606;7.576;2022-08-06T11:52:06;3.42;;;3.13;;
10586;SDS011;5341;47.606;7.576;2022-08-06T11:54:35;3.70;;;2.95;;
10586;SDS011;5341;47.606;7.576;2022-08-06T11:57:23;4.72;;;2.92;;
10586;SDS011;5341;47.606;7.576;2022-08-06T12:00:03;4.60;;;3.10;;
10586;SDS011;5341;47.606;7.576;2022-08-06T12:02:48;6.00;;;2.90;;
10586;SDS011;5341;47.606;7.576;2022-08-06T12:05:32;3.13;;;2.80;;
10586;SDS011;5341;47.606;7.576;2022-08-06T12:13:57;3.45;;;2.78;;
10586;SDS011;5341;47.606;7.576;2022-08-06T12:16:29;4.45;;;3.08;;
10586;SDS011;5341;47.606;7.576;2022-08-06T12:18:58;6.15;;;3.28;;
10586;SDS011;5341;47.606;7.576;2022-08-06T12:21:26;3.35;;;2.75;;
10586;SDS011;5341;47.606;7.576;2022-08-06T12:23:55;3.50;;;2.80;;
10586;SDS011;5341;47.606;7.576;2022-08-06T12:26:23;3.08;;;2.70;;
10586;SDS011;5341;47.606;7.576;2022-08-06T12:28:59;4.30;;;3.00;;
10586;SDS011;5341;47.606;7.576;2022-08-06T12:31:29;3.85;;;3.25;;
10586;SDS011;5341;47.606;7.576;2022-08-06T12:33:58;4.80;;;2.60;;
10586;SDS011;5341;47.606;7.576;2022-08-06T12:36:30;6.00;;;3.10;;
10586;SDS011;5341;47.606;7.576;2022-08-06T12:39:02;4.72;;;3.00;;
10586;SDS011;5341;47.606;7.576;2022-08-06T12:41:34;3.75;;;2.92;;
10586;SDS011;5341;47.606;7.576;2022-08-06T12:44:11;4.45;;;2.90;;
10586;SDS011;5341;47.606;7.576;2022-08-06T12:46:40;4.85;;;3.28;;
10586;SDS011;5341;47.606;7.576;2022-08-06T12:49:09;3.25;;;2.80;;
10586;SDS011;5341;47.606;7.576;2022-08-06T12:51:39;4.25;;;2.90;;
10586;SDS011;5341;47.606;7.576;2022-08-06T12:54:07;3.10;;;2.80;;
10586;SDS011;5341;47.606;7.576;2022-08-06T12:56:36;3.50;;;3.08;;
10586;SDS011;5341;47.606;7.576;2022-08-06T12:59:11;4.05;;;2.70;;
10586;SDS011;5341;47.606;7.576;2022-08-06T13:01:39;6.82;;;3.00;;
10586;SDS011;5341;47.606;7.576;2022-08-06T13:04:11;3.53;;;2.67;;
10586;SDS011;5341;47.606;7.576;2022-08-06T13:06:38;3.85;;;2.80;;
10586;SDS011;5341;47.606;7.576;2022-08-06T13:09:06;3.28;;;2.55;;
10586;SDS011;5341;47.606;7.576;2022-08-06T13:11:34;3.83;;;2.85;;
10586;SDS011;5341;47.606;7.576;2022-08-06T13:14:09;4.80;;;2.88;;
10586;SDS011;5341;47.606;7.576;2022-08-06T13:16:41;4.60;;;2.60;;
10586;SDS011;5341;47.606;7.576;2022-08-06T13:19:11;5.25;;;2.95;;
10586;SDS011;5341;47.606;7.576;2022-08-06T13:21:40;3.67;;;2.22;;
10586;SDS011;5341;47.606;7.576;2022-08-06T13:24:09;6.00;;;2.70;;
10586;SDS011;5341;47.606;7.576;2022-08-06T13:26:47;5.38;;;2.60;;
10586;SDS011;5341;47.606;7.576;2022-08-06T13:29:19;2.60;;;2.40;;
10586;SDS011;5341;47.606;7.576;2022-08-06T13:32:00;3.67;;;2.40;;
10586;SDS011;5341;47.606;7.576;2022-08-06T13:34:40;3.13;;;2.67;;
10586;SDS011;5341;47.606;7.576;2022-08-06T13:37:12;3.42;;;2.50;;
10586;SDS011;5341;47.606;7.576;2022-08-06T13:39:48;3.75;;;2.70;;
10586;SDS011;5341;47.606;7.576;2022-08-06T13:42:16;3.38;;;2.47;;
10586;SDS011;5341;47.606;7.576;2022-08-06T13:44:45;3.42;;;2.70;;
10586;SDS011;5341;47.606;7.576;2022-08-06T13:47:14;2.65;;;2.42;;
10586;SDS011;5341;47.606;7.576;2022-08-06T13:49:54;4.47;;;2.72;;
10586;SDS011;5341;47.606;7.576;2022-08-06T13:52:21;2.53;;;2.33;;
10586;SDS011;5341;47.606;7.576;2022-08-06T13:54:49;3.92;;;2.65;;
10586;SDS011;5341;47.606;7.576;2022-08-06T13:57:16;3.58;;;2.70;;
10586;SDS011;5341;47.606;7.576;2022-08-06T13:59:44;3.25;;;2.80;;
10586;SDS011;5341;47.606;7.576;2022-08-06T14:02:13;2.40;;;2.15;;
10586;SDS011;5341;47.606;7.576;2022-08-06T14:04:41;5.72;;;2.55;;
10586;SDS011;5341;47.606;7.576;2022-08-06T14:07:08;3.05;;;2.60;;
10586;SDS011;5341;47.606;7.576;2022-08-06T14:09:36;4.22;;;2.75;;
10586;SDS011;5341;47.606;7.576;2022-08-06T14:12:04;3.35;;;2.60;;
10586;SDS011;5341;47.606;7.576;2022-08-06T14:14:33;5.88;;;2.85;;
10586;SDS011;5341;47.606;7.576;2022-08-06T14:17:02;3.85;;;2.72;;
10586;SDS011;5341;47.606;7.576;2022-08-06T14:19:30;2.30;;;2.10;;
10586;SDS011;5341;47.606;7.576;2022-08-06T14:21:57;3.42;;;2.47;;
10586;SDS011;5341;47.606;7.576;2022-08-06T14:24:25;4.88;;;2.55;;
10586;SDS011;5341;47.606;7.576;2022-08-06T14:26:52;2.80;;;2.50;;
10586;SDS011;5341;47.606;7.576;2022-08-06T14:29:20;4.65;;;2.40;;
10586;SDS011;5341;47.606;7.576;2022-08-06T14:31:47;3.85;;;2.63;;
10586;SDS011;5341;47.606;7.576;2022-08-06T14:34:17;3.40;;;2.40;;
10586;SDS011;5341;47.606;7.576;2022-08-06T14:36:45;2.95;;;2.33;;
10586;SDS011;5341;47.606;7.576;2022-08-06T14:39:12;4.57;;;2.63;;
10586;SDS011;5341;47.606;7.576;2022-08-06T14:41:41;4.85;;;2.65;;
10586;SDS011;5341;47.606;7.576;2022-08-06T14:44:26;2.53;;;2.33;;
10586;SDS011;5341;47.606;7.576;2022-08-06T14:47:11;3.40;;;2.55;;
10586;SDS011;5341;47.606;7.576;2022-08-06T14:49:40;3.42;;;2.45;;
10586;SDS011;5341;47.606;7.576;2022-08-06T14:52:10;3.80;;;2.40;;
10586;SDS011;5341;47.606;7.576;2022-08-06T14:54:38;4.20;;;2.38;;
10586;SDS011;5341;47.606;7.576;2022-08-06T14:57:07;3.00;;;2.45;;
10586;SDS011;5341;47.606;7.576;2022-08-06T14:59:36;2.70;;;2.28;;
10586;SDS011;5341;47.606;7.576;2022-08-06T15:02:04;2.83;;;2.20;;
10586;SDS011;5341;47.606;7.576;2022-08-06T15:04:33;2.88;;;2.15;;
10586;SDS011;5341;47.606;7.576;2022-08-06T15:07:03;3.72;;;2.33;;
10586;SDS011;5341;47.606;7.576;2022-08-06T15:09:31;3.40;;;2.40;;
10586;SDS011;5341;47.606;7.576;2022-08-06T15:11:59;3.83;;;2.33;;
10586;SDS011;5341;47.606;7.576;2022-08-06T15:14:27;3.28;;;2.70;;
10586;SDS011;5341;47.606;7.576;2022-08-06T15:16:54;4.72;;;2.60;;
10586;SDS011;5341;47.606;7.576;2022-08-06T15:19:22;2.70;;;2.30;;
10586;SDS011;5341;47.606;7.576;2022-08-06T15:21:49;4.63;;;3.10;;
10586;SDS011;5341;47.606;7.576;2022-08-06T15:24:19;2.88;;;2.60;;
10586;SDS011;5341;47.606;7.576;2022-08-06T15:26:46;3.97;;;2.58;;
10586;SDS011;5341;47.606;7.576;2022-08-06T15:29:14;3.65;;;2.63;;
10586;SDS011;5341;47.606;7.576;2022-08-06T15:31:42;2.88;;;2.58;;
10586;SDS011;5341;47.606;7.576;2022-08-06T15:34:10;4.28;;;2.50;;
10586;SDS011;5341;47.606;7.576;2022-08-06T15:36:37;3.13;;;2.67;;
10586;SDS011;5341;47.606;7.576;2022-08-06T15:39:08;3.42;;;2.65;;